Aviation Digital Data Service (ADDS)

Output produced by METARs form (1557 UTC 23 January 2019)
found at http://www.aviationweather.gov/metar/data/
 
METAR text: ESIB 231550Z 10003KT CAVOK M04/M04 Q1008
Conditions at: ESIB (SATENAS (SWE-AFB, SE) observed 1550 UTC 23 January 2019
Temperature: -4.0°C (25°F)
Dewpoint: -4.0°C (25°F) [RH = 100%]
Pressure (altimeter): 29.76 inches Hg (1008.0 mb)
Winds: from the E (100 degrees) at 3 MPH (3 knots; 1.5 m/s)
Visibility: 6 or more miles (10+ km)
Ceiling: ceiling and visibility are OK
Clouds: unknown
Weather: no significant weather observed at this time

METAR text: ESIB 231520Z 06003KT CAVOK M02/M04 Q1008
Conditions at: ESIB (SATENAS (SWE-AFB, SE) observed 1520 UTC 23 January 2019
Temperature: -2.0°C (28°F)
Dewpoint: -4.0°C (25°F) [RH = 86%]
Pressure (altimeter): 29.76 inches Hg (1008.0 mb)
Winds: from the ENE (60 degrees) at 3 MPH (3 knots; 1.5 m/s)
Visibility: 6 or more miles (10+ km)
Ceiling: ceiling and visibility are OK
Clouds: unknown
Weather: no significant weather observed at this time

METAR text: ESIB 231450Z 08003KT CAVOK M02/M04 Q1008
Conditions at: ESIB (SATENAS (SWE-AFB, SE) observed 1450 UTC 23 January 2019
Temperature: -2.0°C (28°F)
Dewpoint: -4.0°C (25°F) [RH = 86%]
Pressure (altimeter): 29.76 inches Hg (1008.0 mb)
Winds: from the E (80 degrees) at 3 MPH (3 knots; 1.5 m/s)
Visibility: 6 or more miles (10+ km)
Ceiling: ceiling and visibility are OK
Clouds: unknown
Weather: no significant weather observed at this time

METAR text: ESIB 231420Z 10002KT CAVOK M02/M03 Q1008
Conditions at: ESIB (SATENAS (SWE-AFB, SE) observed 1420 UTC 23 January 2019
Temperature: -2.0°C (28°F)
Dewpoint: -3.0°C (27°F) [RH = 93%]
Pressure (altimeter): 29.76 inches Hg (1008.0 mb)
Winds: from the E (100 degrees) at 2 MPH (2 knots; 1.0 m/s)
Visibility: 6 or more miles (10+ km)
Ceiling: ceiling and visibility are OK
Clouds: unknown
Weather: no significant weather observed at this time

METAR text: ESIB 231350Z 14003KT CAVOK M01/M03 Q1008
Conditions at: ESIB (SATENAS (SWE-AFB, SE) observed 1350 UTC 23 January 2019
Temperature: -1.0°C (30°F)
Dewpoint: -3.0°C (27°F) [RH = 86%]
Pressure (altimeter): 29.76 inches Hg (1008.0 mb)
Winds: from the SE (140 degrees) at 3 MPH (3 knots; 1.5 m/s)
Visibility: 6 or more miles (10+ km)
Ceiling: ceiling and visibility are OK
Clouds: unknown
Weather: no significant weather observed at this time

METAR text: ESIB 231320Z 14003KT CAVOK M01/M03 Q1008
Conditions at: ESIB (SATENAS (SWE-AFB, SE) observed 1320 UTC 23 January 2019
Temperature: -1.0°C (30°F)
Dewpoint: -3.0°C (27°F) [RH = 86%]
Pressure (altimeter): 29.76 inches Hg (1008.0 mb)
Winds: from the SE (140 degrees) at 3 MPH (3 knots; 1.5 m/s)
Visibility: 6 or more miles (10+ km)
Ceiling: ceiling and visibility are OK
Clouds: unknown
Weather: no significant weather observed at this time

METAR text: ESIB 231250Z 14003KT CAVOK M01/M03 Q1008
Conditions at: ESIB (SATENAS (SWE-AFB, SE) observed 1250 UTC 23 January 2019
Temperature: -1.0°C (30°F)
Dewpoint: -3.0°C (27°F) [RH = 86%]
Pressure (altimeter): 29.76 inches Hg (1008.0 mb)
Winds: from the SE (140 degrees) at 3 MPH (3 knots; 1.5 m/s)
Visibility: 6 or more miles (10+ km)
Ceiling: ceiling and visibility are OK
Clouds: unknown
Weather: no significant weather observed at this time

METAR text: ESIB 231220Z 14004KT CAVOK M02/M03 Q1008
Conditions at: ESIB (SATENAS (SWE-AFB, SE) observed 1220 UTC 23 January 2019
Temperature: -2.0°C (28°F)
Dewpoint: -3.0°C (27°F) [RH = 93%]
Pressure (altimeter): 29.76 inches Hg (1008.0 mb)
Winds: from the SE (140 degrees) at 5 MPH (4 knots; 2.1 m/s)
Visibility: 6 or more miles (10+ km)
Ceiling: ceiling and visibility are OK
Clouds: unknown
Weather: no significant weather observed at this time

METAR text: ESIB 231150Z 14005KT CAVOK M02/M04 Q1008
Conditions at: ESIB (SATENAS (SWE-AFB, SE) observed 1150 UTC 23 January 2019
Temperature: -2.0°C (28°F)
Dewpoint: -4.0°C (25°F) [RH = 86%]
Pressure (altimeter): 29.76 inches Hg (1008.0 mb)
Winds: from the SE (140 degrees) at 6 MPH (5 knots; 2.6 m/s)
Visibility: 6 or more miles (10+ km)
Ceiling: ceiling and visibility are OK
Clouds: unknown
Weather: no significant weather observed at this time

METAR text: ESIB 231120Z 13005KT CAVOK M02/M03 Q1008
Conditions at: ESIB (SATENAS (SWE-AFB, SE) observed 1120 UTC 23 January 2019
Temperature: -2.0°C (28°F)
Dewpoint: -3.0°C (27°F) [RH = 93%]
Pressure (altimeter): 29.76 inches Hg (1008.0 mb)
Winds: from the SE (130 degrees) at 6 MPH (5 knots; 2.6 m/s)
Visibility: 6 or more miles (10+ km)
Ceiling: ceiling and visibility are OK
Clouds: unknown
Weather: no significant weather observed at this time

METAR text: ESIB 231050Z 13005KT CAVOK M02/M04 Q1008
Conditions at: ESIB (SATENAS (SWE-AFB, SE) observed 1050 UTC 23 January 2019
Temperature: -2.0°C (28°F)
Dewpoint: -4.0°C (25°F) [RH = 86%]
Pressure (altimeter): 29.76 inches Hg (1008.0 mb)
Winds: from the SE (130 degrees) at 6 MPH (5 knots; 2.6 m/s)
Visibility: 6 or more miles (10+ km)
Ceiling: ceiling and visibility are OK
Clouds: unknown
Weather: no significant weather observed at this time

METAR text: ESIB 231020Z 12003KT CAVOK M03/M04 Q1008
Conditions at: ESIB (SATENAS (SWE-AFB, SE) observed 1020 UTC 23 January 2019
Temperature: -3.0°C (27°F)
Dewpoint: -4.0°C (25°F) [RH = 93%]
Pressure (altimeter): 29.76 inches Hg (1008.0 mb)
Winds: from the ESE (120 degrees) at 3 MPH (3 knots; 1.5 m/s)
Visibility: 6 or more miles (10+ km)
Ceiling: ceiling and visibility are OK
Clouds: unknown
Weather: no significant weather observed at this time

METAR text: ESIB 230950Z 16003KT CAVOK M03/M04 Q1008
Conditions at: ESIB (SATENAS (SWE-AFB, SE) observed 0950 UTC 23 January 2019
Temperature: -3.0°C (27°F)
Dewpoint: -4.0°C (25°F) [RH = 93%]
Pressure (altimeter): 29.76 inches Hg (1008.0 mb)
Winds: from the SSE (160 degrees) at 3 MPH (3 knots; 1.5 m/s)
Visibility: 6 or more miles (10+ km)
Ceiling: ceiling and visibility are OK
Clouds: unknown
Weather: no significant weather observed at this time

METAR text: ESIB 230920Z 14007KT CAVOK M03/M04 Q1007
Conditions at: ESIB (SATENAS (SWE-AFB, SE) observed 0920 UTC 23 January 2019
Temperature: -3.0°C (27°F)
Dewpoint: -4.0°C (25°F) [RH = 93%]
Pressure (altimeter): 29.73 inches Hg (1007.0 mb)
Winds: from the SE (140 degrees) at 8 MPH (7 knots; 3.6 m/s)
Visibility: 6 or more miles (10+ km)
Ceiling: ceiling and visibility are OK
Clouds: unknown
Weather: no significant weather observed at this time

METAR text: ESIB 230850Z 13006KT CAVOK M03/M04 Q1007
Conditions at: ESIB (SATENAS (SWE-AFB, SE) observed 0850 UTC 23 January 2019
Temperature: -3.0°C (27°F)
Dewpoint: -4.0°C (25°F) [RH = 93%]
Pressure (altimeter): 29.73 inches Hg (1007.0 mb)
Winds: from the SE (130 degrees) at 7 MPH (6 knots; 3.1 m/s)
Visibility: 6 or more miles (10+ km)
Ceiling: ceiling and visibility are OK
Clouds: unknown
Weather: no significant weather observed at this time

METAR text: ESIB 230820Z AUTO 13007KT 9999 NCD M04/M05 Q1007
Conditions at: ESIB (SATENAS (SWE-AFB, SE) observed 0820 UTC 23 January 2019
Temperature: -4.0°C (25°F)
Dewpoint: -5.0°C (23°F) [RH = 93%]
Pressure (altimeter): 29.73 inches Hg (1007.0 mb)
Winds: from the SE (130 degrees) at 8 MPH (7 knots; 3.6 m/s)
Visibility: 6 or more miles (10+ km)
Ceiling: at least 12,000 feet AGL
Clouds: sky clear below 12,000 feet AGL
Weather: no significant weather observed at this time

METAR text: ESIB 230750Z 12006KT CAVOK M05/M06 Q1007
Conditions at: ESIB (SATENAS (SWE-AFB, SE) observed 0750 UTC 23 January 2019
Temperature: -5.0°C (23°F)
Dewpoint: -6.0°C (21°F) [RH = 93%]
Pressure (altimeter): 29.73 inches Hg (1007.0 mb)
Winds: from the ESE (120 degrees) at 7 MPH (6 knots; 3.1 m/s)
Visibility: 6 or more miles (10+ km)
Ceiling: ceiling and visibility are OK
Clouds: unknown
Weather: no significant weather observed at this time

METAR text: ESIB 230720Z 10005KT 9999 FEW041 M04/M06 Q1007
Conditions at: ESIB (SATENAS (SWE-AFB, SE) observed 0720 UTC 23 January 2019
Temperature: -4.0°C (25°F)
Dewpoint: -6.0°C (21°F) [RH = 86%]
Pressure (altimeter): 29.73 inches Hg (1007.0 mb)
Winds: from the E (100 degrees) at 6 MPH (5 knots; 2.6 m/s)
Visibility: 6 or more miles (10+ km)
Ceiling: at least 12,000 feet AGL
Clouds: few clouds at 4100 feet AGL
Weather: no significant weather observed at this time

METAR text: ESIB 230650Z 10004KT 9999 SCT041 M03/M04 Q1007
Conditions at: ESIB (SATENAS (SWE-AFB, SE) observed 0650 UTC 23 January 2019
Temperature: -3.0°C (27°F)
Dewpoint: -4.0°C (25°F) [RH = 93%]
Pressure (altimeter): 29.73 inches Hg (1007.0 mb)
Winds: from the E (100 degrees) at 5 MPH (4 knots; 2.1 m/s)
Visibility: 6 or more miles (10+ km)
Ceiling: at least 12,000 feet AGL
Clouds: scattered clouds at 4100 feet AGL
Weather: no significant weather observed at this time

METAR text: ESIB 230620Z 13006KT 9999 BKN040 M04/M05 Q1006
Conditions at: ESIB (SATENAS (SWE-AFB, SE) observed 0620 UTC 23 January 2019
Temperature: -4.0°C (25°F)
Dewpoint: -5.0°C (23°F) [RH = 93%]
Pressure (altimeter): 29.70 inches Hg (1006.0 mb)
Winds: from the SE (130 degrees) at 7 MPH (6 knots; 3.1 m/s)
Visibility: 6 or more miles (10+ km)
Ceiling: 4000 feet AGL
Clouds: broken clouds at 4000 feet AGL
Weather: no significant weather observed at this time

METAR text: ESIB 230550Z 13007KT 9999 SCT029 M03/M04 Q1006
Conditions at: ESIB (SATENAS (SWE-AFB, SE) observed 0550 UTC 23 January 2019
Temperature: -3.0°C (27°F)
Dewpoint: -4.0°C (25°F) [RH = 93%]
Pressure (altimeter): 29.70 inches Hg (1006.0 mb)
Winds: from the SE (130 degrees) at 8 MPH (7 knots; 3.6 m/s)
Visibility: 6 or more miles (10+ km)
Ceiling: at least 12,000 feet AGL
Clouds: scattered clouds at 2900 feet AGL
Weather: no significant weather observed at this time

METAR text: ESIB 230520Z 14006KT 9999 BKN028 M02/M03 Q1006
Conditions at: ESIB (SATENAS (SWE-AFB, SE) observed 0520 UTC 23 January 2019
Temperature: -2.0°C (28°F)
Dewpoint: -3.0°C (27°F) [RH = 93%]
Pressure (altimeter): 29.70 inches Hg (1006.0 mb)
Winds: from the SE (140 degrees) at 7 MPH (6 knots; 3.1 m/s)
Visibility: 6 or more miles (10+ km)
Ceiling: 2800 feet AGL
Clouds: broken clouds at 2800 feet AGL
Weather: no significant weather observed at this time

METAR text: ESIB 230450Z AUTO 14006KT 9999 OVC027/// M02/M03 Q1006
Conditions at: ESIB (SATENAS (SWE-AFB, SE) observed 0450 UTC 23 January 2019
Temperature: -2.0°C (28°F)
Dewpoint: -3.0°C (27°F) [RH = 93%]
Pressure (altimeter): 29.70 inches Hg (1006.0 mb)
Winds: from the SE (140 degrees) at 7 MPH (6 knots; 3.1 m/s)
Visibility: 6 or more miles (10+ km)
Ceiling: 2700 feet AGL
Clouds: overcast cloud deck at 2700 feet AGL
Weather: no significant weather observed at this time

METAR text: ESIB 230420Z AUTO 15006KT 9999 OVC030/// M02/M03 Q1006
Conditions at: ESIB (SATENAS (SWE-AFB, SE) observed 0420 UTC 23 January 2019
Temperature: -2.0°C (28°F)
Dewpoint: -3.0°C (27°F) [RH = 93%]
Pressure (altimeter): 29.70 inches Hg (1006.0 mb)
Winds: from the SSE (150 degrees) at 7 MPH (6 knots; 3.1 m/s)
Visibility: 6 or more miles (10+ km)
Ceiling: 3000 feet AGL
Clouds: overcast cloud deck at 3000 feet AGL
Weather: no significant weather observed at this time

METAR text: ESIB 230350Z AUTO 14007KT 9999 OVC032/// M02/M03 Q1006
Conditions at: ESIB (SATENAS (SWE-AFB, SE) observed 0350 UTC 23 January 2019
Temperature: -2.0°C (28°F)
Dewpoint: -3.0°C (27°F) [RH = 93%]
Pressure (altimeter): 29.70 inches Hg (1006.0 mb)
Winds: from the SE (140 degrees) at 8 MPH (7 knots; 3.6 m/s)
Visibility: 6 or more miles (10+ km)
Ceiling: 3200 feet AGL
Clouds: overcast cloud deck at 3200 feet AGL
Weather: no significant weather observed at this time

METAR text: ESIB 230320Z AUTO 14006KT 9999 OVC033/// M01/M03 Q1006
Conditions at: ESIB (SATENAS (SWE-AFB, SE) observed 0320 UTC 23 January 2019
Temperature: -1.0°C (30°F)
Dewpoint: -3.0°C (27°F) [RH = 86%]
Pressure (altimeter): 29.70 inches Hg (1006.0 mb)
Winds: from the SE (140 degrees) at 7 MPH (6 knots; 3.1 m/s)
Visibility: 6 or more miles (10+ km)
Ceiling: 3300 feet AGL
Clouds: overcast cloud deck at 3300 feet AGL
Weather: no significant weather observed at this time

METAR text: ESIB 230250Z AUTO 11006KT 9999 OVC034/// M02/M03 Q1006
Conditions at: ESIB (SATENAS (SWE-AFB, SE) observed 0250 UTC 23 January 2019
Temperature: -2.0°C (28°F)
Dewpoint: -3.0°C (27°F) [RH = 93%]
Pressure (altimeter): 29.70 inches Hg (1006.0 mb)
Winds: from the ESE (110 degrees) at 7 MPH (6 knots; 3.1 m/s)
Visibility: 6 or more miles (10+ km)
Ceiling: 3400 feet AGL
Clouds: overcast cloud deck at 3400 feet AGL
Weather: no significant weather observed at this time

METAR text: ESIB 230220Z AUTO 11006KT 9999 OVC034/// M02/M03 Q1006
Conditions at: ESIB (SATENAS (SWE-AFB, SE) observed 0220 UTC 23 January 2019
Temperature: -2.0°C (28°F)
Dewpoint: -3.0°C (27°F) [RH = 93%]
Pressure (altimeter): 29.70 inches Hg (1006.0 mb)
Winds: from the ESE (110 degrees) at 7 MPH (6 knots; 3.1 m/s)
Visibility: 6 or more miles (10+ km)
Ceiling: 3400 feet AGL
Clouds: overcast cloud deck at 3400 feet AGL
Weather: no significant weather observed at this time

METAR text: ESIB 230150Z AUTO 13005KT 9999 OVC033/// M02/M03 Q1006
Conditions at: ESIB (SATENAS (SWE-AFB, SE) observed 0150 UTC 23 January 2019
Temperature: -2.0°C (28°F)
Dewpoint: -3.0°C (27°F) [RH = 93%]
Pressure (altimeter): 29.70 inches Hg (1006.0 mb)
Winds: from the SE (130 degrees) at 6 MPH (5 knots; 2.6 m/s)
Visibility: 6 or more miles (10+ km)
Ceiling: 3300 feet AGL
Clouds: overcast cloud deck at 3300 feet AGL
Weather: no significant weather observed at this time

METAR text: ESIB 230120Z AUTO 13006KT 9999 OVC034/// M03/M04 Q1006
Conditions at: ESIB (SATENAS (SWE-AFB, SE) observed 0120 UTC 23 January 2019
Temperature: -3.0°C (27°F)
Dewpoint: -4.0°C (25°F) [RH = 93%]
Pressure (altimeter): 29.70 inches Hg (1006.0 mb)
Winds: from the SE (130 degrees) at 7 MPH (6 knots; 3.1 m/s)
Visibility: 6 or more miles (10+ km)
Ceiling: 3400 feet AGL
Clouds: overcast cloud deck at 3400 feet AGL
Weather: no significant weather observed at this time

METAR text: ESIB 230050Z AUTO 15007KT 9999 OVC037/// M03/M04 Q1006
Conditions at: ESIB (SATENAS (SWE-AFB, SE) observed 0050 UTC 23 January 2019
Temperature: -3.0°C (27°F)
Dewpoint: -4.0°C (25°F) [RH = 93%]
Pressure (altimeter): 29.70 inches Hg (1006.0 mb)
Winds: from the SSE (150 degrees) at 8 MPH (7 knots; 3.6 m/s)
Visibility: 6 or more miles (10+ km)
Ceiling: 3700 feet AGL
Clouds: overcast cloud deck at 3700 feet AGL
Weather: no significant weather observed at this time

METAR text: ESIB 230020Z AUTO 13005KT 9999 OVC040/// M04/M04 Q1006
Conditions at: ESIB (SATENAS (SWE-AFB, SE) observed 0020 UTC 23 January 2019
Temperature: -4.0°C (25°F)
Dewpoint: -4.0°C (25°F) [RH = 100%]
Pressure (altimeter): 29.70 inches Hg (1006.0 mb)
Winds: from the SE (130 degrees) at 6 MPH (5 knots; 2.6 m/s)
Visibility: 6 or more miles (10+ km)
Ceiling: 4000 feet AGL
Clouds: overcast cloud deck at 4000 feet AGL
Weather: no significant weather observed at this time

METAR text: ESIB 222350Z AUTO 14004KT 9999 OVC039/// M03/M04 Q1006
Conditions at: ESIB (SATENAS (SWE-AFB, SE) observed 2350 UTC 22 January 2019
Temperature: -3.0°C (27°F)
Dewpoint: -4.0°C (25°F) [RH = 93%]
Pressure (altimeter): 29.70 inches Hg (1006.0 mb)
Winds: from the SE (140 degrees) at 5 MPH (4 knots; 2.1 m/s)
Visibility: 6 or more miles (10+ km)
Ceiling: 3900 feet AGL
Clouds: overcast cloud deck at 3900 feet AGL
Weather: no significant weather observed at this time

METAR text: ESIB 222320Z AUTO 14004KT 9999 OVC040/// M03/M04 Q1007
Conditions at: ESIB (SATENAS (SWE-AFB, SE) observed 2320 UTC 22 January 2019
Temperature: -3.0°C (27°F)
Dewpoint: -4.0°C (25°F) [RH = 93%]
Pressure (altimeter): 29.73 inches Hg (1007.0 mb)
Winds: from the SE (140 degrees) at 5 MPH (4 knots; 2.1 m/s)
Visibility: 6 or more miles (10+ km)
Ceiling: 4000 feet AGL
Clouds: overcast cloud deck at 4000 feet AGL
Weather: no significant weather observed at this time

METAR text: ESIB 222250Z AUTO 14006KT 9999 OVC042/// M03/M04 Q1006
Conditions at: ESIB (SATENAS (SWE-AFB, SE) observed 2250 UTC 22 January 2019
Temperature: -3.0°C (27°F)
Dewpoint: -4.0°C (25°F) [RH = 93%]
Pressure (altimeter): 29.70 inches Hg (1006.0 mb)
Winds: from the SE (140 degrees) at 7 MPH (6 knots; 3.1 m/s)
Visibility: 6 or more miles (10+ km)
Ceiling: 4200 feet AGL
Clouds: overcast cloud deck at 4200 feet AGL
Weather: no significant weather observed at this time

METAR text: ESIB 222220Z AUTO 14006KT 9999 BKN045/// M04/M04 Q1007
Conditions at: ESIB (SATENAS (SWE-AFB, SE) observed 2220 UTC 22 January 2019
Temperature: -4.0°C (25°F)
Dewpoint: -4.0°C (25°F) [RH = 100%]
Pressure (altimeter): 29.73 inches Hg (1007.0 mb)
Winds: from the SE (140 degrees) at 7 MPH (6 knots; 3.1 m/s)
Visibility: 6 or more miles (10+ km)
Ceiling: 4500 feet AGL
Clouds: broken clouds at 4500 feet AGL
Weather: no significant weather observed at this time

METAR text: ESIB 222150Z AUTO 13005KT 9999 BKN046/// M04/M05 Q1007
Conditions at: ESIB (SATENAS (SWE-AFB, SE) observed 2150 UTC 22 January 2019
Temperature: -4.0°C (25°F)
Dewpoint: -5.0°C (23°F) [RH = 93%]
Pressure (altimeter): 29.73 inches Hg (1007.0 mb)
Winds: from the SE (130 degrees) at 6 MPH (5 knots; 2.6 m/s)
Visibility: 6 or more miles (10+ km)
Ceiling: 4600 feet AGL
Clouds: broken clouds at 4600 feet AGL
Weather: no significant weather observed at this time

METAR text: ESIB 222120Z AUTO 13005KT 9999 SCT045/// BKN170/// M04/M04 Q1007
Conditions at: ESIB (SATENAS (SWE-AFB, SE) observed 2120 UTC 22 January 2019
Temperature: -4.0°C (25°F)
Dewpoint: -4.0°C (25°F) [RH = 100%]
Pressure (altimeter): 29.73 inches Hg (1007.0 mb)
Winds: from the SE (130 degrees) at 6 MPH (5 knots; 2.6 m/s)
Visibility: 6 or more miles (10+ km)
Ceiling: 17000 feet AGL
Clouds: scattered clouds at 4500 feet AGL
broken clouds at 17000 feet AGL
Weather: no significant weather observed at this time

METAR text: ESIB 222050Z AUTO 11004KT 9999 NCD M04/M05 Q1007
Conditions at: ESIB (SATENAS (SWE-AFB, SE) observed 2050 UTC 22 January 2019
Temperature: -4.0°C (25°F)
Dewpoint: -5.0°C (23°F) [RH = 93%]
Pressure (altimeter): 29.73 inches Hg (1007.0 mb)
Winds: from the ESE (110 degrees) at 5 MPH (4 knots; 2.1 m/s)
Visibility: 6 or more miles (10+ km)
Ceiling: at least 12,000 feet AGL
Clouds: sky clear below 12,000 feet AGL
Weather: no significant weather observed at this time

METAR text: ESIB 222020Z AUTO 11003KT 9999 FEW190/// M03/M04 Q1007
Conditions at: ESIB (SATENAS (SWE-AFB, SE) observed 2020 UTC 22 January 2019
Temperature: -3.0°C (27°F)
Dewpoint: -4.0°C (25°F) [RH = 93%]
Pressure (altimeter): 29.73 inches Hg (1007.0 mb)
Winds: from the ESE (110 degrees) at 3 MPH (3 knots; 1.5 m/s)
Visibility: 6 or more miles (10+ km)
Ceiling: at least 12,000 feet AGL
Clouds: few clouds at 19000 feet AGL
Weather: no significant weather observed at this time

METAR text: ESIB 221950Z AUTO 14004KT 9999 FEW047/// M03/M04 Q1007
Conditions at: ESIB (SATENAS (SWE-AFB, SE) observed 1950 UTC 22 January 2019
Temperature: -3.0°C (27°F)
Dewpoint: -4.0°C (25°F) [RH = 93%]
Pressure (altimeter): 29.73 inches Hg (1007.0 mb)
Winds: from the SE (140 degrees) at 5 MPH (4 knots; 2.1 m/s)
Visibility: 6 or more miles (10+ km)
Ceiling: at least 12,000 feet AGL
Clouds: few clouds at 4700 feet AGL
Weather: no significant weather observed at this time

METAR text: ESIB 221920Z AUTO 13005KT 9999 BKN047/// M03/M03 Q1007
Conditions at: ESIB (SATENAS (SWE-AFB, SE) observed 1920 UTC 22 January 2019
Temperature: -3.0°C (27°F)
Dewpoint: -3.0°C (27°F) [RH = 100%]
Pressure (altimeter): 29.73 inches Hg (1007.0 mb)
Winds: from the SE (130 degrees) at 6 MPH (5 knots; 2.6 m/s)
Visibility: 6 or more miles (10+ km)
Ceiling: 4700 feet AGL
Clouds: broken clouds at 4700 feet AGL
Weather: no significant weather observed at this time

METAR text: ESIB 221850Z AUTO 12004KT 9999 SCT047/// OVC190/// M02/M03 Q1007
Conditions at: ESIB (SATENAS (SWE-AFB, SE) observed 1850 UTC 22 January 2019
Temperature: -2.0°C (28°F)
Dewpoint: -3.0°C (27°F) [RH = 93%]
Pressure (altimeter): 29.73 inches Hg (1007.0 mb)
Winds: from the ESE (120 degrees) at 5 MPH (4 knots; 2.1 m/s)
Visibility: 6 or more miles (10+ km)
Ceiling: 19000 feet AGL
Clouds: scattered clouds at 4700 feet AGL
overcast cloud deck at 19000 feet AGL
Weather: no significant weather observed at this time

METAR text: ESIB 221820Z AUTO 13003KT 9999 BKN047/// M02/M02 Q1007
Conditions at: ESIB (SATENAS (SWE-AFB, SE) observed 1820 UTC 22 January 2019
Temperature: -2.0°C (28°F)
Dewpoint: -2.0°C (28°F) [RH = 100%]
Pressure (altimeter): 29.73 inches Hg (1007.0 mb)
Winds: from the SE (130 degrees) at 3 MPH (3 knots; 1.5 m/s)
Visibility: 6 or more miles (10+ km)
Ceiling: 4700 feet AGL
Clouds: broken clouds at 4700 feet AGL
Weather: no significant weather observed at this time

METAR text: ESIB 221750Z AUTO 13002KT 9999 BKN048/// M02/M02 Q1007
Conditions at: ESIB (SATENAS (SWE-AFB, SE) observed 1750 UTC 22 January 2019
Temperature: -2.0°C (28°F)
Dewpoint: -2.0°C (28°F) [RH = 100%]
Pressure (altimeter): 29.73 inches Hg (1007.0 mb)
Winds: from the SE (130 degrees) at 2 MPH (2 knots; 1.0 m/s)
Visibility: 6 or more miles (10+ km)
Ceiling: 4800 feet AGL
Clouds: broken clouds at 4800 feet AGL
Weather: no significant weather observed at this time

METAR text: ESIB 221720Z AUTO 14004KT 9999 FEW049/// M01/M02 Q1007
Conditions at: ESIB (SATENAS (SWE-AFB, SE) observed 1720 UTC 22 January 2019
Temperature: -1.0°C (30°F)
Dewpoint: -2.0°C (28°F) [RH = 93%]
Pressure (altimeter): 29.73 inches Hg (1007.0 mb)
Winds: from the SE (140 degrees) at 5 MPH (4 knots; 2.1 m/s)
Visibility: 6 or more miles (10+ km)
Ceiling: at least 12,000 feet AGL
Clouds: few clouds at 4900 feet AGL
Weather: no significant weather observed at this time

METAR text: ESIB 221650Z AUTO 12004KT 9999 BKN047/// M01/M02 Q1007
Conditions at: ESIB (SATENAS (SWE-AFB, SE) observed 1650 UTC 22 January 2019
Temperature: -1.0°C (30°F)
Dewpoint: -2.0°C (28°F) [RH = 93%]
Pressure (altimeter): 29.73 inches Hg (1007.0 mb)
Winds: from the ESE (120 degrees) at 5 MPH (4 knots; 2.1 m/s)
Visibility: 6 or more miles (10+ km)
Ceiling: 4700 feet AGL
Clouds: broken clouds at 4700 feet AGL
Weather: no significant weather observed at this time

METAR text: ESIB 221620Z 14002KT 9999 BKN046 M01/M01 Q1007
Conditions at: ESIB (SATENAS (SWE-AFB, SE) observed 1620 UTC 22 January 2019
Temperature: -1.0°C (30°F)
Dewpoint: -1.0°C (30°F) [RH = 100%]
Pressure (altimeter): 29.73 inches Hg (1007.0 mb)
Winds: from the SE (140 degrees) at 2 MPH (2 knots; 1.0 m/s)
Visibility: 6 or more miles (10+ km)
Ceiling: 4600 feet AGL
Clouds: broken clouds at 4600 feet AGL
Weather: no significant weather observed at this time

METAR text: ESIB 221550Z 13004KT 9999 FEW039 BKN046 M01/M01 Q1007
Conditions at: ESIB (SATENAS (SWE-AFB, SE) observed 1550 UTC 22 January 2019
Temperature: -1.0°C (30°F)
Dewpoint: -1.0°C (30°F) [RH = 100%]
Pressure (altimeter): 29.73 inches Hg (1007.0 mb)
Winds: from the SE (130 degrees) at 5 MPH (4 knots; 2.1 m/s)
Visibility: 6 or more miles (10+ km)
Ceiling: 4600 feet AGL
Clouds: few clouds at 3900 feet AGL
broken clouds at 4600 feet AGL
Weather: no significant weather observed at this time

METAR text: ESIB 221520Z 14004KT 9999 FEW039 BKN044 M00/M01 Q1007
Conditions at: ESIB (SATENAS (SWE-AFB, SE) observed 1520 UTC 22 January 2019
Temperature: 0.0°C (32°F)
Dewpoint: -1.0°C (30°F) [RH = 93%]
Pressure (altimeter): 29.73 inches Hg (1007.0 mb)
Winds: from the SE (140 degrees) at 5 MPH (4 knots; 2.1 m/s)
Visibility: 6 or more miles (10+ km)
Ceiling: 4400 feet AGL
Clouds: few clouds at 3900 feet AGL
broken clouds at 4400 feet AGL
Weather: no significant weather observed at this time

METAR text: ESIB 221450Z 14004KT 9999 BKN044 M00/M01 Q1007
Conditions at: ESIB (SATENAS (SWE-AFB, SE) observed 1450 UTC 22 January 2019
Temperature: 0.0°C (32°F)
Dewpoint: -1.0°C (30°F) [RH = 93%]
Pressure (altimeter): 29.73 inches Hg (1007.0 mb)
Winds: from the SE (140 degrees) at 5 MPH (4 knots; 2.1 m/s)
Visibility: 6 or more miles (10+ km)
Ceiling: 4400 feet AGL
Clouds: broken clouds at 4400 feet AGL
Weather: no significant weather observed at this time

METAR text: ESIB 221420Z 13003KT 9999 BKN046 M00/M01 Q1007
Conditions at: ESIB (SATENAS (SWE-AFB, SE) observed 1420 UTC 22 January 2019
Temperature: 0.0°C (32°F)
Dewpoint: -1.0°C (30°F) [RH = 93%]
Pressure (altimeter): 29.73 inches Hg (1007.0 mb)
Winds: from the SE (130 degrees) at 3 MPH (3 knots; 1.5 m/s)
Visibility: 6 or more miles (10+ km)
Ceiling: 4600 feet AGL
Clouds: broken clouds at 4600 feet AGL
Weather: no significant weather observed at this time

METAR text: ESIB 221350Z 14003KT 9999 FEW020 OVC043 00/M01 Q1008
Conditions at: ESIB (SATENAS (SWE-AFB, SE) observed 1350 UTC 22 January 2019
Temperature: 0.0°C (32°F)
Dewpoint: -1.0°C (30°F) [RH = 93%]
Pressure (altimeter): 29.76 inches Hg (1008.0 mb)
Winds: from the SE (140 degrees) at 3 MPH (3 knots; 1.5 m/s)
Visibility: 6 or more miles (10+ km)
Ceiling: 4300 feet AGL
Clouds: few clouds at 2000 feet AGL
overcast cloud deck at 4300 feet AGL
Weather: no significant weather observed at this time

METAR text: ESIB 221320Z 15003KT 9999 FEW012 BKN043 00/M01 Q1008
Conditions at: ESIB (SATENAS (SWE-AFB, SE) observed 1320 UTC 22 January 2019
Temperature: 0.0°C (32°F)
Dewpoint: -1.0°C (30°F) [RH = 93%]
Pressure (altimeter): 29.76 inches Hg (1008.0 mb)
Winds: from the SSE (150 degrees) at 3 MPH (3 knots; 1.5 m/s)
Visibility: 6 or more miles (10+ km)
Ceiling: 4300 feet AGL
Clouds: few clouds at 1200 feet AGL
broken clouds at 4300 feet AGL
Weather: no significant weather observed at this time

METAR text: ESIB 221250Z 14004KT 9999 FEW013 BKN045 00/M01 Q1008
Conditions at: ESIB (SATENAS (SWE-AFB, SE) observed 1250 UTC 22 January 2019
Temperature: 0.0°C (32°F)
Dewpoint: -1.0°C (30°F) [RH = 93%]
Pressure (altimeter): 29.76 inches Hg (1008.0 mb)
Winds: from the SE (140 degrees) at 5 MPH (4 knots; 2.1 m/s)
Visibility: 6 or more miles (10+ km)
Ceiling: 4500 feet AGL
Clouds: few clouds at 1300 feet AGL
broken clouds at 4500 feet AGL
Weather: no significant weather observed at this time

METAR text: ESIB 221220Z 14005KT 9999 FEW013 BKN044 00/M01 Q1008
Conditions at: ESIB (SATENAS (SWE-AFB, SE) observed 1220 UTC 22 January 2019
Temperature: 0.0°C (32°F)
Dewpoint: -1.0°C (30°F) [RH = 93%]
Pressure (altimeter): 29.76 inches Hg (1008.0 mb)
Winds: from the SE (140 degrees) at 6 MPH (5 knots; 2.6 m/s)
Visibility: 6 or more miles (10+ km)
Ceiling: 4400 feet AGL
Clouds: few clouds at 1300 feet AGL
broken clouds at 4400 feet AGL
Weather: no significant weather observed at this time

METAR text: ESIB 221150Z 16004KT 9999 FEW013 BKN044 00/M00 Q1009
Conditions at: ESIB (SATENAS (SWE-AFB, SE) observed 1150 UTC 22 January 2019
Temperature: 0.0°C (32°F)
Dewpoint: 0.0°C (32°F) [RH = 100%]
Pressure (altimeter): 29.79 inches Hg (1009.0 mb)
Winds: from the SSE (160 degrees) at 5 MPH (4 knots; 2.1 m/s)
Visibility: 6 or more miles (10+ km)
Ceiling: 4400 feet AGL
Clouds: few clouds at 1300 feet AGL
broken clouds at 4400 feet AGL
Weather: no significant weather observed at this time

METAR text: ESIB 221120Z 16003KT 9999 BKN010 BKN045 00/M00 Q1009
Conditions at: ESIB (SATENAS (SWE-AFB, SE) observed 1120 UTC 22 January 2019
Temperature: 0.0°C (32°F)
Dewpoint: 0.0°C (32°F) [RH = 100%]
Pressure (altimeter): 29.79 inches Hg (1009.0 mb)
Winds: from the SSE (160 degrees) at 3 MPH (3 knots; 1.5 m/s)
Visibility: 6 or more miles (10+ km)
Ceiling: 1000 feet AGL
Clouds: broken clouds at 1000 feet AGL
broken clouds at 4500 feet AGL
Weather: no significant weather observed at this time

METAR text: ESIB 221050Z 14003KT 9999 FEW010 BKN045 00/M00 Q1009
Conditions at: ESIB (SATENAS (SWE-AFB, SE) observed 1050 UTC 22 January 2019
Temperature: 0.0°C (32°F)
Dewpoint: 0.0°C (32°F) [RH = 100%]
Pressure (altimeter): 29.79 inches Hg (1009.0 mb)
Winds: from the SE (140 degrees) at 3 MPH (3 knots; 1.5 m/s)
Visibility: 6 or more miles (10+ km)
Ceiling: 4500 feet AGL
Clouds: few clouds at 1000 feet AGL
broken clouds at 4500 feet AGL
Weather: no significant weather observed at this time

METAR text: ESIB 221020Z 13003KT 9999 SCT011 BKN045 00/M00 Q1009
Conditions at: ESIB (SATENAS (SWE-AFB, SE) observed 1020 UTC 22 January 2019
Temperature: 0.0°C (32°F)
Dewpoint: 0.0°C (32°F) [RH = 100%]
Pressure (altimeter): 29.79 inches Hg (1009.0 mb)
Winds: from the SE (130 degrees) at 3 MPH (3 knots; 1.5 m/s)
Visibility: 6 or more miles (10+ km)
Ceiling: 4500 feet AGL
Clouds: scattered clouds at 1100 feet AGL
broken clouds at 4500 feet AGL
Weather: no significant weather observed at this time

METAR text: ESIB 220950Z VRB01KT 9999 FEW012 BKN041 M00/M00 Q1009
Conditions at: ESIB (SATENAS (SWE-AFB, SE) observed 0950 UTC 22 January 2019
Temperature: 0.0°C (32°F)
Dewpoint: 0.0°C (32°F) [RH = 100%]
Pressure (altimeter): 29.79 inches Hg (1009.0 mb)
Winds: variable direction winds at 1 MPH (1 knots; 0.5 m/s)
Visibility: 6 or more miles (10+ km)
Ceiling: 4100 feet AGL
Clouds: few clouds at 1200 feet AGL
broken clouds at 4100 feet AGL
Weather: no significant weather observed at this time

METAR text: ESIB 220920Z 18003KT 160V220 9999 SCT011 BKN032 M00/M01 Q1009
Conditions at: ESIB (SATENAS (SWE-AFB, SE) observed 0920 UTC 22 January 2019
Temperature: 0.0°C (32°F)
Dewpoint: -1.0°C (30°F) [RH = 93%]
Pressure (altimeter): 29.79 inches Hg (1009.0 mb)
Winds: from the S (180 degrees) at 3 MPH (3 knots; 1.5 m/s)
Visibility: 6 or more miles (10+ km)
Ceiling: 3200 feet AGL
Clouds: scattered clouds at 1100 feet AGL
broken clouds at 3200 feet AGL
Weather: no significant weather observed at this time

METAR text: ESIB 220850Z 15002KT 9999 FEW010 BKN030 M01/M01 Q1009
Conditions at: ESIB (SATENAS (SWE-AFB, SE) observed 0850 UTC 22 January 2019
Temperature: -1.0°C (30°F)
Dewpoint: -1.0°C (30°F) [RH = 100%]
Pressure (altimeter): 29.79 inches Hg (1009.0 mb)
Winds: from the SSE (150 degrees) at 2 MPH (2 knots; 1.0 m/s)
Visibility: 6 or more miles (10+ km)
Ceiling: 3000 feet AGL
Clouds: few clouds at 1000 feet AGL
broken clouds at 3000 feet AGL
Weather: no significant weather observed at this time

METAR text: ESIB 220820Z 14002KT 9999 BKN009 BKN030 M00/M01 Q1009
Conditions at: ESIB (SATENAS (SWE-AFB, SE) observed 0820 UTC 22 January 2019
Temperature: 0.0°C (32°F)
Dewpoint: -1.0°C (30°F) [RH = 93%]
Pressure (altimeter): 29.79 inches Hg (1009.0 mb)
Winds: from the SE (140 degrees) at 2 MPH (2 knots; 1.0 m/s)
Visibility: 6 or more miles (10+ km)
Ceiling: 900 feet AGL
Clouds: broken clouds at 900 feet AGL
broken clouds at 3000 feet AGL
Weather: no significant weather observed at this time

METAR text: ESIB 220750Z 15003KT 9000 BKN008 BKN035 M01/M01 Q1009
Conditions at: ESIB (SATENAS (SWE-AFB, SE) observed 0750 UTC 22 January 2019
Temperature: -1.0°C (30°F)
Dewpoint: -1.0°C (30°F) [RH = 100%]
Pressure (altimeter): 29.79 inches Hg (1009.0 mb)
Winds: from the SSE (150 degrees) at 3 MPH (3 knots; 1.5 m/s)
Visibility: 6 miles ( 9 km)
Ceiling: 800 feet AGL
Clouds: broken clouds at 800 feet AGL
broken clouds at 3500 feet AGL
Weather: no significant weather observed at this time

METAR text: ESIB 220720Z 14004KT 8000 FEW007 BKN009 BKN035 M01/M01 Q1009 RE-SG
Conditions at: ESIB (SATENAS (SWE-AFB, SE) observed 0720 UTC 22 January 2019
Temperature: -1.0°C (30°F)
Dewpoint: -1.0°C (30°F) [RH = 100%]
Pressure (altimeter): 29.79 inches Hg (1009.0 mb)
Winds: from the SE (140 degrees) at 5 MPH (4 knots; 2.1 m/s)
Visibility: 5 miles ( 8 km)
Ceiling: 900 feet AGL
Clouds: few clouds at 700 feet AGL
broken clouds at 900 feet AGL
broken clouds at 3500 feet AGL
Weather: -SG  (light snow grains)

METAR text: ESIB 220650Z 15004KT 7000 -SG FEW007 BKN013 BKN035 M01/M01 Q1010
Conditions at: ESIB (SATENAS (SWE-AFB, SE) observed 0650 UTC 22 January 2019
Temperature: -1.0°C (30°F)
Dewpoint: -1.0°C (30°F) [RH = 100%]
Pressure (altimeter): 29.82 inches Hg (1010.0 mb)
Winds: from the SSE (150 degrees) at 5 MPH (4 knots; 2.1 m/s)
Visibility: 4 miles ( 7 km)
Ceiling: 1300 feet AGL
Clouds: few clouds at 700 feet AGL
broken clouds at 1300 feet AGL
broken clouds at 3500 feet AGL
Weather: -SG  (light snow grains)

METAR text: ESIB 220620Z 14005KT 8000 -SG FEW007 BKN008 BKN030 M01/M01 Q1010
Conditions at: ESIB (SATENAS (SWE-AFB, SE) observed 0620 UTC 22 January 2019
Temperature: -1.0°C (30°F)
Dewpoint: -1.0°C (30°F) [RH = 100%]
Pressure (altimeter): 29.82 inches Hg (1010.0 mb)
Winds: from the SE (140 degrees) at 6 MPH (5 knots; 2.6 m/s)
Visibility: 5 miles ( 8 km)
Ceiling: 800 feet AGL
Clouds: few clouds at 700 feet AGL
broken clouds at 800 feet AGL
broken clouds at 3000 feet AGL
Weather: -SG  (light snow grains)

METAR text: ESIB 220550Z 13005KT 9999 FEW007 BKN009 BKN017 M01/M01 Q1010
Conditions at: ESIB (SATENAS (SWE-AFB, SE) observed 0550 UTC 22 January 2019
Temperature: -1.0°C (30°F)
Dewpoint: -1.0°C (30°F) [RH = 100%]
Pressure (altimeter): 29.82 inches Hg (1010.0 mb)
Winds: from the SE (130 degrees) at 6 MPH (5 knots; 2.6 m/s)
Visibility: 6 or more miles (10+ km)
Ceiling: 900 feet AGL
Clouds: few clouds at 700 feet AGL
broken clouds at 900 feet AGL
broken clouds at 1700 feet AGL
Weather: no significant weather observed at this time

METAR text: ESIB 220520Z 12005KT 7000 -SG FEW006 BKN010 M01/M01 Q1010
Conditions at: ESIB (SATENAS (SWE-AFB, SE) observed 0520 UTC 22 January 2019
Temperature: -1.0°C (30°F)
Dewpoint: -1.0°C (30°F) [RH = 100%]
Pressure (altimeter): 29.82 inches Hg (1010.0 mb)
Winds: from the ESE (120 degrees) at 6 MPH (5 knots; 2.6 m/s)
Visibility: 4 miles ( 7 km)
Ceiling: 1000 feet AGL
Clouds: few clouds at 600 feet AGL
broken clouds at 1000 feet AGL
Weather: -SG  (light snow grains)

METAR text: ESIB 220450Z AUTO 13005KT 9999 FEW011/// OVC015/// M01/M02 Q1010
Conditions at: ESIB (SATENAS (SWE-AFB, SE) observed 0450 UTC 22 January 2019
Temperature: -1.0°C (30°F)
Dewpoint: -2.0°C (28°F) [RH = 93%]
Pressure (altimeter): 29.82 inches Hg (1010.0 mb)
Winds: from the SE (130 degrees) at 6 MPH (5 knots; 2.6 m/s)
Visibility: 6 or more miles (10+ km)
Ceiling: 1500 feet AGL
Clouds: few clouds at 1100 feet AGL
overcast cloud deck at 1500 feet AGL
Weather: no significant weather observed at this time

METAR text: ESIB 220420Z AUTO 13005KT 9999 SCT012/// OVC028/// M01/M02 Q1010
Conditions at: ESIB (SATENAS (SWE-AFB, SE) observed 0420 UTC 22 January 2019
Temperature: -1.0°C (30°F)
Dewpoint: -2.0°C (28°F) [RH = 93%]
Pressure (altimeter): 29.82 inches Hg (1010.0 mb)
Winds: from the SE (130 degrees) at 6 MPH (5 knots; 2.6 m/s)
Visibility: 6 or more miles (10+ km)
Ceiling: 2800 feet AGL
Clouds: scattered clouds at 1200 feet AGL
overcast cloud deck at 2800 feet AGL
Weather: no significant weather observed at this time

Forecast for: ESIB (SATENAS (SWE-AFB, SE)
Text: TAF ESIB 231100Z 2312/2316 12005KT CAVOK RMK MIL
Forecast period: 1200 to 1600 UTC 23 January 2019
Forecast type: FROM: standard forecast or significant change
Winds: from the ESE (120 degrees) at 6 MPH (5 knots; 2.6 m/s)
Visibility: 6 or more miles 10+ km)
Ceiling: unknown
Clouds: missing
Weather: NSW  (no significant weather)